sensor_id;sensor_type;location;lat;lon;timestamp;temperature;humidity
11812;DHT22;5963;50.184;9.162;2023-07-13T00:01:44;18.40;99.90
11812;DHT22;5963;50.184;9.162;2023-07-13T00:04:19;18.30;99.90
11812;DHT22;5963;50.184;9.162;2023-07-13T00:06:49;18.20;99.90
11812;DHT22;5963;50.184;9.162;2023-07-13T00:09:19;18.00;99.90
11812;DHT22;5963;50.184;9.162;2023-07-13T00:11:53;18.10;99.90
11812;DHT22;5963;50.184;9.162;2023-07-13T00:14:26;18.30;99.90
11812;DHT22;5963;50.184;9.162;2023-07-13T00:16:57;18.50;99.90
11812;DHT22;5963;50.184;9.162;2023-07-13T00:19:29;18.70;99.90
11812;DHT22;5963;50.184;9.162;2023-07-13T00:21:59;18.90;99.90
11812;DHT22;5963;50.184;9.162;2023-07-13T00:24:36;19.00;99.90
11812;DHT22;5963;50.184;9.162;2023-07-13T00:27:10;19.00;99.90
11812;DHT22;5963;50.184;9.162;2023-07-13T00:29:45;19.10;99.90
11812;DHT22;5963;50.184;9.162;2023-07-13T00:32:15;19.20;99.90
11812;DHT22;5963;50.184;9.162;2023-07-13T00:34:45;19.00;99.90
11812;DHT22;5963;50.184;9.162;2023-07-13T00:37:15;19.10;99.90
11812;DHT22;5963;50.184;9.162;2023-07-13T00:39:59;19.10;99.90
11812;DHT22;5963;50.184;9.162;2023-07-13T00:42:30;19.00;99.90
11812;DHT22;5963;50.184;9.162;2023-07-13T00:47:57;18.80;99.90
11812;DHT22;5963;50.184;9.162;2023-07-13T00:50:31;18.90;99.90
11812;DHT22;5963;50.184;9.162;2023-07-13T00:53:03;18.80;99.90
11812;DHT22;5963;50.184;9.162;2023-07-13T00:55:33;18.90;99.90
11812;DHT22;5963;50.184;9.162;2023-07-13T00:58:05;18.80;99.90
11812;DHT22;5963;50.184;9.162;2023-07-13T01:00:42;18.80;99.90
11812;DHT22;5963;50.184;9.162;2023-07-13T01:03:12;18.80;99.90
11812;DHT22;5963;50.184;9.162;2023-07-13T01:05:42;18.70;99.90
11812;DHT22;5963;50.184;9.162;2023-07-13T01:08:12;18.70;99.90
11812;DHT22;5963;50.184;9.162;2023-07-13T01:10:47;18.80;99.90
11812;DHT22;5963;50.184;9.162;2023-07-13T01:13:20;18.80;99.90
11812;DHT22;5963;50.184;9.162;2023-07-13T01:15:53;18.90;99.90
11812;DHT22;5963;50.184;9.162;2023-07-13T01:18:25;18.90;99.90
11812;DHT22;5963;50.184;9.162;2023-07-13T01:21:00;18.90;99.90
11812;DHT22;5963;50.184;9.162;2023-07-13T01:23:31;18.80;99.90
11812;DHT22;5963;50.184;9.162;2023-07-13T01:26:07;18.70;99.90
11812;DHT22;5963;50.184;9.162;2023-07-13T01:28:37;18.70;99.90
11812;DHT22;5963;50.184;9.162;2023-07-13T01:31:11;18.50;99.90
11812;DHT22;5963;50.184;9.162;2023-07-13T01:33:42;18.40;99.90
11812;DHT22;5963;50.184;9.162;2023-07-13T01:36:15;18.30;99.90
11812;DHT22;5963;50.184;9.162;2023-07-13T01:38:47;18.30;99.90
11812;DHT22;5963;50.184;9.162;2023-07-13T01:41:18;18.10;99.90
11812;DHT22;5963;50.184;9.162;2023-07-13T01:43:48;18.00;99.90
11812;DHT22;5963;50.184;9.162;2023-07-13T01:46:18;17.80;99.90
11812;DHT22;5963;50.184;9.162;2023-07-13T01:48:52;17.80;99.90
11812;DHT22;5963;50.184;9.162;2023-07-13T01:51:23;17.80;99.90
11812;DHT22;5963;50.184;9.162;2023-07-13T01:53:53;17.80;99.90
11812;DHT22;5963;50.184;9.162;2023-07-13T01:56:24;17.80;99.90
11812;DHT22;5963;50.184;9.162;2023-07-13T01:58:54;17.70;99.90
11812;DHT22;5963;50.184;9.162;2023-07-13T02:01:24;17.70;99.90
11812;DHT22;5963;50.184;9.162;2023-07-13T02:03:54;17.80;99.90
11812;DHT22;5963;50.184;9.162;2023-07-13T02:06:27;17.80;99.90
11812;DHT22;5963;50.184;9.162;2023-07-13T02:08:57;17.60;99.90
11812;DHT22;5963;50.184;9.162;2023-07-13T02:11:27;17.60;99.90
11812;DHT22;5963;50.184;9.162;2023-07-13T02:14:01;17.60;99.90
11812;DHT22;5963;50.184;9.162;2023-07-13T02:16:34;17.60;99.90
11812;DHT22;5963;50.184;9.162;2023-07-13T02:19:05;17.70;99.90
11812;DHT22;5963;50.184;9.162;2023-07-13T02:21:42;17.60;99.90
11812;DHT22;5963;50.184;9.162;2023-07-13T02:24:12;17.60;99.90
11812;DHT22;5963;50.184;9.162;2023-07-13T02:26:46;17.70;99.90
11812;DHT22;5963;50.184;9.162;2023-07-13T02:29:17;17.70;99.90
11812;DHT22;5963;50.184;9.162;2023-07-13T02:31:49;17.70;99.90
11812;DHT22;5963;50.184;9.162;2023-07-13T02:34:19;17.70;99.90
11812;DHT22;5963;50.184;9.162;2023-07-13T02:36:54;17.60;99.90
11812;DHT22;5963;50.184;9.162;2023-07-13T02:39:24;17.60;99.90
11812;DHT22;5963;50.184;9.162;2023-07-13T02:41:58;17.60;99.90
11812;DHT22;5963;50.184;9.162;2023-07-13T02:44:28;17.70;99.90
11812;DHT22;5963;50.184;9.162;2023-07-13T02:46:58;17.70;99.90
11812;DHT22;5963;50.184;9.162;2023-07-13T02:49:31;17.60;99.90
11812;DHT22;5963;50.184;9.162;2023-07-13T02:52:08;17.80;99.90
11812;DHT22;5963;50.184;9.162;2023-07-13T02:54:44;17.80;99.90
11812;DHT22;5963;50.184;9.162;2023-07-13T02:57:17;17.90;99.90
11812;DHT22;5963;50.184;9.162;2023-07-13T02:59:47;18.00;99.90
11812;DHT22;5963;50.184;9.162;2023-07-13T03:02:19;18.00;99.90
11812;DHT22;5963;50.184;9.162;2023-07-13T03:04:55;18.00;99.90
11812;DHT22;5963;50.184;9.162;2023-07-13T03:07:40;18.00;99.90
11812;DHT22;5963;50.184;9.162;2023-07-13T03:10:11;18.00;99.90
11812;DHT22;5963;50.184;9.162;2023-07-13T03:12:42;18.00;99.90
11812;DHT22;5963;50.184;9.162;2023-07-13T03:15:22;18.00;99.90
11812;DHT22;5963;50.184;9.162;2023-07-13T03:18:02;18.00;99.90
11812;DHT22;5963;50.184;9.162;2023-07-13T03:20:35;17.90;99.90
11812;DHT22;5963;50.184;9.162;2023-07-13T03:23:08;18.00;99.90
11812;DHT22;5963;50.184;9.162;2023-07-13T03:26:00;17.80;99.90
11812;DHT22;5963;50.184;9.162;2023-07-13T03:28:43;17.80;99.90
11812;DHT22;5963;50.184;9.162;2023-07-13T03:31:28;17.80;99.90
11812;DHT22;5963;50.184;9.162;2023-07-13T03:34:02;17.70;99.90
11812;DHT22;5963;50.184;9.162;2023-07-13T03:36:41;17.70;99.90
11812;DHT22;5963;50.184;9.162;2023-07-13T03:39:23;17.70;99.90
11812;DHT22;5963;50.184;9.162;2023-07-13T03:41:57;17.60;99.90
11812;DHT22;5963;50.184;9.162;2023-07-13T03:47:23;17.10;99.90
11812;DHT22;5963;50.184;9.162;2023-07-13T03:49:53;17.00;99.90
11812;DHT22;5963;50.184;9.162;2023-07-13T03:52:26;16.90;99.90
11812;DHT22;5963;50.184;9.162;2023-07-13T03:55:13;16.90;99.90
11812;DHT22;5963;50.184;9.162;2023-07-13T03:57:52;16.80;99.90
11812;DHT22;5963;50.184;9.162;2023-07-13T04:00:40;16.70;99.90
11812;DHT22;5963;50.184;9.162;2023-07-13T04:03:13;16.60;99.90
11812;DHT22;5963;50.184;9.162;2023-07-13T04:05:49;16.50;99.90
11812;DHT22;5963;50.184;9.162;2023-07-13T04:08:21;16.30;99.90
11812;DHT22;5963;50.184;9.162;2023-07-13T04:10:52;16.20;99.90
11812;DHT22;5963;50.184;9.162;2023-07-13T04:13:26;16.20;99.90
11812;DHT22;5963;50.184;9.162;2023-07-13T04:15:57;16.20;99.90
11812;DHT22;5963;50.184;9.162;2023-07-13T04:18:38;16.20;99.90
11812;DHT22;5963;50.184;9.162;2023-07-13T04:21:11;16.30;99.90
11812;DHT22;5963;50.184;9.162;2023-07-13T04:23:42;16.50;99.90
11812;DHT22;5963;50.184;9.162;2023-07-13T04:26:19;16.60;99.90
11812;DHT22;5963;50.184;9.162;2023-07-13T04:28:54;16.60;99.90
11812;DHT22;5963;50.184;9.162;2023-07-13T04:31:29;16.60;99.90
11812;DHT22;5963;50.184;9.162;2023-07-13T04:33:59;16.60;99.90
11812;DHT22;5963;50.184;9.162;2023-07-13T04:36:29;16.70;99.90
11812;DHT22;5963;50.184;9.162;2023-07-13T04:39:04;16.80;99.90
11812;DHT22;5963;50.184;9.162;2023-07-13T04:41:41;17.00;99.90
11812;DHT22;5963;50.184;9.162;2023-07-13T04:44:11;17.10;99.90
11812;DHT22;5963;50.184;9.162;2023-07-13T04:46:41;17.10;99.90
11812;DHT22;5963;50.184;9.162;2023-07-13T04:49:36;17.20;99.90
11812;DHT22;5963;50.184;9.162;2023-07-13T04:52:09;18.10;99.90
11812;DHT22;5963;50.184;9.162;2023-07-13T04:54:42;19.40;99.90
11812;DHT22;5963;50.184;9.162;2023-07-13T04:57:23;19.90;99.90
11812;DHT22;5963;50.184;9.162;2023-07-13T04:59:57;20.40;99.90
11812;DHT22;5963;50.184;9.162;2023-07-13T05:02:37;20.20;99.90
11812;DHT22;5963;50.184;9.162;2023-07-13T05:05:16;21.10;99.90
11812;DHT22;5963;50.184;9.162;2023-07-13T05:08:08;21.20;99.90
11812;DHT22;5963;50.184;9.162;2023-07-13T05:10:41;20.80;99.90
11812;DHT22;5963;50.184;9.162;2023-07-13T05:13:17;21.50;99.90
11812;DHT22;5963;50.184;9.162;2023-07-13T05:15:59;22.70;99.90
11812;DHT22;5963;50.184;9.162;2023-07-13T05:18:41;23.50;99.90
11812;DHT22;5963;50.184;9.162;2023-07-13T05:21:30;24.20;99.90
11812;DHT22;5963;50.184;9.162;2023-07-13T05:24:11;24.80;99.90
11812;DHT22;5963;50.184;9.162;2023-07-13T05:26:53;24.60;99.90
11812;DHT22;5963;50.184;9.162;2023-07-13T05:29:33;26.00;99.90
11812;DHT22;5963;50.184;9.162;2023-07-13T05:32:17;26.80;99.90
11812;DHT22;5963;50.184;9.162;2023-07-13T05:34:49;27.20;99.90
11812;DHT22;5963;50.184;9.162;2023-07-13T05:37:24;27.60;99.90
11812;DHT22;5963;50.184;9.162;2023-07-13T05:39:54;27.20;99.90
11812;DHT22;5963;50.184;9.162;2023-07-13T05:42:25;27.00;99.40
11812;DHT22;5963;50.184;9.162;2023-07-13T05:45:03;26.80;99.10
11812;DHT22;5963;50.184;9.162;2023-07-13T05:47:35;26.90;99.00
11812;DHT22;5963;50.184;9.162;2023-07-13T05:50:07;27.80;97.90
11812;DHT22;5963;50.184;9.162;2023-07-13T05:52:41;28.00;96.90
11812;DHT22;5963;50.184;9.162;2023-07-13T05:55:13;27.80;96.40
11812;DHT22;5963;50.184;9.162;2023-07-13T05:57:46;26.90;97.10
11812;DHT22;5963;50.184;9.162;2023-07-13T06:00:35;27.40;96.80
11812;DHT22;5963;50.184;9.162;2023-07-13T06:03:13;28.00;96.40
11812;DHT22;5963;50.184;9.162;2023-07-13T06:05:45;28.50;95.00
11812;DHT22;5963;50.184;9.162;2023-07-13T06:08:20;27.30;92.90
11812;DHT22;5963;50.184;9.162;2023-07-13T06:10:58;26.60;93.80
11812;DHT22;5963;50.184;9.162;2023-07-13T06:13:32;26.90;93.00
11812;DHT22;5963;50.184;9.162;2023-07-13T06:16:05;27.30;93.20
11812;DHT22;5963;50.184;9.162;2023-07-13T06:18:37;26.10;93.70
11812;DHT22;5963;50.184;9.162;2023-07-13T06:21:13;25.20;93.50
11812;DHT22;5963;50.184;9.162;2023-07-13T06:23:45;25.10;93.60
11812;DHT22;5963;50.184;9.162;2023-07-13T06:26:17;26.10;92.80
11812;DHT22;5963;50.184;9.162;2023-07-13T06:28:55;25.20;93.20
11812;DHT22;5963;50.184;9.162;2023-07-13T06:31:27;23.90;94.30
11812;DHT22;5963;50.184;9.162;2023-07-13T06:33:59;23.80;95.00
11812;DHT22;5963;50.184;9.162;2023-07-13T06:36:30;25.10;94.60
11812;DHT22;5963;50.184;9.162;2023-07-13T06:39:02;24.60;93.90
11812;DHT22;5963;50.184;9.162;2023-07-13T06:41:43;24.80;94.80
11812;DHT22;5963;50.184;9.162;2023-07-13T06:44:21;25.20;94.80
11812;DHT22;5963;50.184;9.162;2023-07-13T06:47:07;25.50;94.00
11812;DHT22;5963;50.184;9.162;2023-07-13T06:49:38;24.40;93.20
11812;DHT22;5963;50.184;9.162;2023-07-13T06:52:14;24.20;94.00
11812;DHT22;5963;50.184;9.162;2023-07-13T06:54:47;24.30;94.90
11812;DHT22;5963;50.184;9.162;2023-07-13T06:57:25;23.80;96.00
11812;DHT22;5963;50.184;9.162;2023-07-13T07:00:12;24.20;95.60
11812;DHT22;5963;50.184;9.162;2023-07-13T07:02:49;23.70;95.90
11812;DHT22;5963;50.184;9.162;2023-07-13T07:05:26;24.20;95.10
11812;DHT22;5963;50.184;9.162;2023-07-13T07:07:58;24.10;93.60
11812;DHT22;5963;50.184;9.162;2023-07-13T07:10:31;23.50;94.70
11812;DHT22;5963;50.184;9.162;2023-07-13T07:13:10;22.90;94.90
11812;DHT22;5963;50.184;9.162;2023-07-13T07:15:44;22.40;95.80
11812;DHT22;5963;50.184;9.162;2023-07-13T07:18:25;22.60;96.10
11812;DHT22;5963;50.184;9.162;2023-07-13T07:20:58;22.80;95.60
11812;DHT22;5963;50.184;9.162;2023-07-13T07:23:31;23.00;96.60
11812;DHT22;5963;50.184;9.162;2023-07-13T07:26:04;23.20;96.60
11812;DHT22;5963;50.184;9.162;2023-07-13T07:28:35;23.40;95.40
11812;DHT22;5963;50.184;9.162;2023-07-13T07:31:10;22.50;96.60
11812;DHT22;5963;50.184;9.162;2023-07-13T07:33:53;22.60;97.10
11812;DHT22;5963;50.184;9.162;2023-07-13T07:36:26;23.00;96.60
11812;DHT22;5963;50.184;9.162;2023-07-13T07:39:01;23.30;96.80
11812;DHT22;5963;50.184;9.162;2023-07-13T07:41:52;23.20;95.50
11812;DHT22;5963;50.184;9.162;2023-07-13T07:44:32;23.20;95.10
11812;DHT22;5963;50.184;9.162;2023-07-13T07:47:13;23.50;95.50
11812;DHT22;5963;50.184;9.162;2023-07-13T07:49:50;23.50;94.90
11812;DHT22;5963;50.184;9.162;2023-07-13T07:52:21;24.00;95.20
11812;DHT22;5963;50.184;9.162;2023-07-13T07:54:56;24.30;94.00
11812;DHT22;5963;50.184;9.162;2023-07-13T07:57:31;24.30;92.80
11812;DHT22;5963;50.184;9.162;2023-07-13T08:00:23;24.50;93.30
11812;DHT22;5963;50.184;9.162;2023-07-13T08:03:14;24.50;92.30
11812;DHT22;5963;50.184;9.162;2023-07-13T08:05:57;24.50;92.30
11812;DHT22;5963;50.184;9.162;2023-07-13T08:08:53;24.80;92.40
11812;DHT22;5963;50.184;9.162;2023-07-13T08:11:25;24.60;91.80
11812;DHT22;5963;50.184;9.162;2023-07-13T08:14:01;24.50;91.80
11812;DHT22;5963;50.184;9.162;2023-07-13T08:16:46;24.40;91.60
11812;DHT22;5963;50.184;9.162;2023-07-13T08:19:22;24.20;92.00
11812;DHT22;5963;50.184;9.162;2023-07-13T08:21:54;24.30;92.40
11812;DHT22;5963;50.184;9.162;2023-07-13T08:24:26;24.80;92.30
11812;DHT22;5963;50.184;9.162;2023-07-13T08:26:56;24.90;91.30
11812;DHT22;5963;50.184;9.162;2023-07-13T08:29:29;24.90;91.40
11812;DHT22;5963;50.184;9.162;2023-07-13T08:32:03;25.40;91.40
11812;DHT22;5963;50.184;9.162;2023-07-13T08:34:44;25.40;91.00
11812;DHT22;5963;50.184;9.162;2023-07-13T08:37:41;25.40;90.30
11812;DHT22;5963;50.184;9.162;2023-07-13T08:40:13;25.20;90.80
11812;DHT22;5963;50.184;9.162;2023-07-13T08:42:58;24.90;91.40
11812;DHT22;5963;50.184;9.162;2023-07-13T08:45:37;24.80;91.30
11812;DHT22;5963;50.184;9.162;2023-07-13T08:48:14;24.60;91.10
11812;DHT22;5963;50.184;9.162;2023-07-13T08:50:55;24.90;91.20
11812;DHT22;5963;50.184;9.162;2023-07-13T08:53:32;25.50;91.20
11812;DHT22;5963;50.184;9.162;2023-07-13T08:56:20;25.90;91.20
11812;DHT22;5963;50.184;9.162;2023-07-13T08:58:58;25.80;90.00
11812;DHT22;5963;50.184;9.162;2023-07-13T09:01:31;25.80;89.60
11812;DHT22;5963;50.184;9.162;2023-07-13T09:04:18;25.70;90.80
11812;DHT22;5963;50.184;9.162;2023-07-13T09:07:00;25.70;90.50
11812;DHT22;5963;50.184;9.162;2023-07-13T09:09:50;25.80;90.00
11812;DHT22;5963;50.184;9.162;2023-07-13T09:12:31;25.80;90.20
11812;DHT22;5963;50.184;9.162;2023-07-13T09:15:14;26.50;90.30
11812;DHT22;5963;50.184;9.162;2023-07-13T09:17:56;26.50;90.10
11812;DHT22;5963;50.184;9.162;2023-07-13T09:20:35;26.90;87.60
11812;DHT22;5963;50.184;9.162;2023-07-13T09:23:14;26.20;87.60
11812;DHT22;5963;50.184;9.162;2023-07-13T09:25:53;25.50;89.20
11812;DHT22;5963;50.184;9.162;2023-07-13T09:28:29;26.00;89.10
11812;DHT22;5963;50.184;9.162;2023-07-13T09:31:09;25.70;86.70
11812;DHT22;5963;50.184;9.162;2023-07-13T09:33:43;25.40;87.10
11812;DHT22;5963;50.184;9.162;2023-07-13T09:36:20;25.50;89.40
11812;DHT22;5963;50.184;9.162;2023-07-13T09:38:54;25.90;87.90
11812;DHT22;5963;50.184;9.162;2023-07-13T09:41:39;26.10;87.50
11812;DHT22;5963;50.184;9.162;2023-07-13T09:44:14;26.30;86.30
11812;DHT22;5963;50.184;9.162;2023-07-13T09:46:55;26.80;86.00
11812;DHT22;5963;50.184;9.162;2023-07-13T09:49:32;26.70;84.70
11812;DHT22;5963;50.184;9.162;2023-07-13T09:52:09;25.90;85.80
11812;DHT22;5963;50.184;9.162;2023-07-13T09:54:49;26.20;85.40
11812;DHT22;5963;50.184;9.162;2023-07-13T09:57:29;26.40;84.60
11812;DHT22;5963;50.184;9.162;2023-07-13T10:00:27;26.20;85.20
11812;DHT22;5963;50.184;9.162;2023-07-13T10:03:05;26.70;84.50
11812;DHT22;5963;50.184;9.162;2023-07-13T10:05:44;26.40;83.20
11812;DHT22;5963;50.184;9.162;2023-07-13T10:08:23;26.60;82.90
11812;DHT22;5963;50.184;9.162;2023-07-13T10:11:11;27.00;84.30
11812;DHT22;5963;50.184;9.162;2023-07-13T10:13:50;27.40;83.30
11812;DHT22;5963;50.184;9.162;2023-07-13T10:16:39;27.40;81.20
11812;DHT22;5963;50.184;9.162;2023-07-13T10:19:17;27.00;84.30
11812;DHT22;5963;50.184;9.162;2023-07-13T10:21:57;27.00;81.90
11812;DHT22;5963;50.184;9.162;2023-07-13T10:24:41;27.40;82.00
11812;DHT22;5963;50.184;9.162;2023-07-13T10:27:28;27.10;79.70
11812;DHT22;5963;50.184;9.162;2023-07-13T10:30:13;27.30;81.20
11812;DHT22;5963;50.184;9.162;2023-07-13T10:32:45;26.80;81.70
11812;DHT22;5963;50.184;9.162;2023-07-13T10:35:22;26.90;82.20
11812;DHT22;5963;50.184;9.162;2023-07-13T10:38:04;27.00;82.30
11812;DHT22;5963;50.184;9.162;2023-07-13T10:40:52;27.30;80.30
11812;DHT22;5963;50.184;9.162;2023-07-13T10:43:41;26.30;81.20
11812;DHT22;5963;50.184;9.162;2023-07-13T10:46:19;26.60;81.80
11812;DHT22;5963;50.184;9.162;2023-07-13T10:48:56;26.40;80.00
11812;DHT22;5963;50.184;9.162;2023-07-13T10:51:30;26.90;80.20
11812;DHT22;5963;50.184;9.162;2023-07-13T10:54:16;26.40;80.80
11812;DHT22;5963;50.184;9.162;2023-07-13T10:56:48;26.20;83.00
11812;DHT22;5963;50.184;9.162;2023-07-13T10:59:23;25.90;80.90
11812;DHT22;5963;50.184;9.162;2023-07-13T11:02:06;26.30;80.20
11812;DHT22;5963;50.184;9.162;2023-07-13T11:04:45;26.20;81.10
11812;DHT22;5963;50.184;9.162;2023-07-13T11:07:22;26.70;80.90
11812;DHT22;5963;50.184;9.162;2023-07-13T11:09:54;27.00;80.30
11812;DHT22;5963;50.184;9.162;2023-07-13T11:12:57;26.80;79.50
11812;DHT22;5963;50.184;9.162;2023-07-13T11:15:39;26.70;79.80
11812;DHT22;5963;50.184;9.162;2023-07-13T11:18:24;26.70;81.10
11812;DHT22;5963;50.184;9.162;2023-07-13T11:21:17;26.90;79.70
11812;DHT22;5963;50.184;9.162;2023-07-13T11:24:13;27.30;78.90
11812;DHT22;5963;50.184;9.162;2023-07-13T11:26:52;27.70;78.70
11812;DHT22;5963;50.184;9.162;2023-07-13T11:29:36;27.80;79.60
11812;DHT22;5963;50.184;9.162;2023-07-13T11:32:25;27.50;78.70
11812;DHT22;5963;50.184;9.162;2023-07-13T11:35:08;27.10;77.50
11812;DHT22;5963;50.184;9.162;2023-07-13T11:37:43;27.00;78.90
11812;DHT22;5963;50.184;9.162;2023-07-13T11:40:19;27.30;78.80
11812;DHT22;5963;50.184;9.162;2023-07-13T11:43:04;27.80;78.00
11812;DHT22;5963;50.184;9.162;2023-07-13T11:45:38;28.10;78.40
11812;DHT22;5963;50.184;9.162;2023-07-13T11:48:28;27.70;76.20
11812;DHT22;5963;50.184;9.162;2023-07-13T11:51:06;27.30;77.30
11812;DHT22;5963;50.184;9.162;2023-07-13T11:53:43;27.30;77.10
11812;DHT22;5963;50.184;9.162;2023-07-13T11:56:19;27.30;77.90
11812;DHT22;5963;50.184;9.162;2023-07-13T11:58:51;27.10;77.40
11812;DHT22;5963;50.184;9.162;2023-07-13T12:01:26;27.40;77.10
11812;DHT22;5963;50.184;9.162;2023-07-13T12:03:58;27.30;78.00
11812;DHT22;5963;50.184;9.162;2023-07-13T12:06:35;27.20;78.10
11812;DHT22;5963;50.184;9.162;2023-07-13T12:12:08;27.00;77.90
11812;DHT22;5963;50.184;9.162;2023-07-13T12:14:40;26.80;78.80
11812;DHT22;5963;50.184;9.162;2023-07-13T12:17:15;26.90;79.10
11812;DHT22;5963;50.184;9.162;2023-07-13T12:19:47;26.60;77.80
11812;DHT22;5963;50.184;9.162;2023-07-13T12:22:21;26.20;78.80
11812;DHT22;5963;50.184;9.162;2023-07-13T12:24:54;26.30;78.10
11812;DHT22;5963;50.184;9.162;2023-07-13T12:27:37;26.40;78.30
11812;DHT22;5963;50.184;9.162;2023-07-13T12:30:26;26.20;78.30
11812;DHT22;5963;50.184;9.162;2023-07-13T12:33:01;26.10;78.50
11812;DHT22;5963;50.184;9.162;2023-07-13T12:35:44;26.20;77.10
11812;DHT22;5963;50.184;9.162;2023-07-13T12:38:17;25.40;79.00
11812;DHT22;5963;50.184;9.162;2023-07-13T12:41:03;25.50;79.40
11812;DHT22;5963;50.184;9.162;2023-07-13T12:43:42;26.00;78.00
11812;DHT22;5963;50.184;9.162;2023-07-13T12:46:23;25.90;78.70
11812;DHT22;5963;50.184;9.162;2023-07-13T12:48:57;26.60;77.90
11812;DHT22;5963;50.184;9.162;2023-07-13T12:51:55;27.00;75.40
11812;DHT22;5963;50.184;9.162;2023-07-13T12:54:29;26.40;75.80
11812;DHT22;5963;50.184;9.162;2023-07-13T12:57:12;26.20;77.80
11812;DHT22;5963;50.184;9.162;2023-07-13T12:59:52;26.50;77.30
11812;DHT22;5963;50.184;9.162;2023-07-13T13:02:27;26.30;77.70
11812;DHT22;5963;50.184;9.162;2023-07-13T13:04:58;26.20;77.40
11812;DHT22;5963;50.184;9.162;2023-07-13T13:07:32;26.70;77.30
11812;DHT22;5963;50.184;9.162;2023-07-13T13:10:18;27.00;78.00
11812;DHT22;5963;50.184;9.162;2023-07-13T13:12:54;27.10;76.10
11812;DHT22;5963;50.184;9.162;2023-07-13T13:15:24;27.00;76.80
11812;DHT22;5963;50.184;9.162;2023-07-13T13:17:57;26.70;76.00
11812;DHT22;5963;50.184;9.162;2023-07-13T13:20:35;26.20;77.30
11812;DHT22;5963;50.184;9.162;2023-07-13T13:23:07;26.20;78.00
11812;DHT22;5963;50.184;9.162;2023-07-13T13:25:44;26.50;77.70
11812;DHT22;5963;50.184;9.162;2023-07-13T13:28:20;26.60;77.20
11812;DHT22;5963;50.184;9.162;2023-07-13T13:30:52;26.60;77.00
11812;DHT22;5963;50.184;9.162;2023-07-13T13:33:24;26.40;76.20
11812;DHT22;5963;50.184;9.162;2023-07-13T13:35:59;26.40;77.30
11812;DHT22;5963;50.184;9.162;2023-07-13T13:38:37;26.60;76.50
11812;DHT22;5963;50.184;9.162;2023-07-13T13:41:13;26.50;76.30
11812;DHT22;5963;50.184;9.162;2023-07-13T13:43:53;26.60;77.60
11812;DHT22;5963;50.184;9.162;2023-07-13T13:46:42;26.70;77.90
11812;DHT22;5963;50.184;9.162;2023-07-13T13:49:14;26.80;78.10
11812;DHT22;5963;50.184;9.162;2023-07-13T13:51:50;26.80;77.30
11812;DHT22;5963;50.184;9.162;2023-07-13T13:54:21;26.60;77.00
11812;DHT22;5963;50.184;9.162;2023-07-13T13:56:55;26.50;77.40
11812;DHT22;5963;50.184;9.162;2023-07-13T13:59:39;26.60;76.10
11812;DHT22;5963;50.184;9.162;2023-07-13T14:02:25;26.30;76.50
11812;DHT22;5963;50.184;9.162;2023-07-13T14:05:12;26.00;77.30
11812;DHT22;5963;50.184;9.162;2023-07-13T14:07:42;26.20;78.30
11812;DHT22;5963;50.184;9.162;2023-07-13T14:10:14;26.20;77.40
11812;DHT22;5963;50.184;9.162;2023-07-13T14:12:48;26.30;77.70
11812;DHT22;5963;50.184;9.162;2023-07-13T14:15:28;26.20;77.20
11812;DHT22;5963;50.184;9.162;2023-07-13T14:18:00;25.60;77.80
11812;DHT22;5963;50.184;9.162;2023-07-13T14:20:38;25.90;78.10
11812;DHT22;5963;50.184;9.162;2023-07-13T14:23:12;26.10;77.40
11812;DHT22;5963;50.184;9.162;2023-07-13T14:25:45;26.00;77.60
11812;DHT22;5963;50.184;9.162;2023-07-13T14:28:34;25.80;77.50
11812;DHT22;5963;50.184;9.162;2023-07-13T14:31:04;25.90;77.80
11812;DHT22;5963;50.184;9.162;2023-07-13T14:33:36;25.80;76.90
11812;DHT22;5963;50.184;9.162;2023-07-13T14:36:26;25.90;77.10
11812;DHT22;5963;50.184;9.162;2023-07-13T14:39:01;25.90;77.60
11812;DHT22;5963;50.184;9.162;2023-07-13T14:41:49;26.00;78.00
11812;DHT22;5963;50.184;9.162;2023-07-13T14:44:28;25.80;78.70
11812;DHT22;5963;50.184;9.162;2023-07-13T14:47:13;25.60;78.30
11812;DHT22;5963;50.184;9.162;2023-07-13T14:49:54;25.70;77.30
11812;DHT22;5963;50.184;9.162;2023-07-13T14:52:33;25.90;78.20
11812;DHT22;5963;50.184;9.162;2023-07-13T14:55:10;26.00;78.20
11812;DHT22;5963;50.184;9.162;2023-07-13T14:57:42;26.20;79.10
11812;DHT22;5963;50.184;9.162;2023-07-13T15:00:23;26.30;77.90
11812;DHT22;5963;50.184;9.162;2023-07-13T15:02:59;26.20;78.50
11812;DHT22;5963;50.184;9.162;2023-07-13T15:05:36;26.20;77.80
11812;DHT22;5963;50.184;9.162;2023-07-13T15:08:07;25.90;77.90
11812;DHT22;5963;50.184;9.162;2023-07-13T15:10:41;25.70;79.10
11812;DHT22;5963;50.184;9.162;2023-07-13T15:13:19;25.50;79.10
11812;DHT22;5963;50.184;9.162;2023-07-13T15:15:54;25.40;79.70
11812;DHT22;5963;50.184;9.162;2023-07-13T15:18:28;25.50;80.60
11812;DHT22;5963;50.184;9.162;2023-07-13T15:21:17;25.50;79.80
11812;DHT22;5963;50.184;9.162;2023-07-13T15:23:54;25.60;79.40
11812;DHT22;5963;50.184;9.162;2023-07-13T15:26:31;25.60;79.70
11812;DHT22;5963;50.184;9.162;2023-07-13T15:29:14;25.50;80.50
11812;DHT22;5963;50.184;9.162;2023-07-13T15:31:45;25.40;80.60
11812;DHT22;5963;50.184;9.162;2023-07-13T15:34:29;25.40;80.90
11812;DHT22;5963;50.184;9.162;2023-07-13T15:37:01;25.50;80.50
11812;DHT22;5963;50.184;9.162;2023-07-13T15:39:32;25.40;80.60
11812;DHT22;5963;50.184;9.162;2023-07-13T15:42:21;25.60;81.10
11812;DHT22;5963;50.184;9.162;2023-07-13T15:45:01;25.60;81.10
11812;DHT22;5963;50.184;9.162;2023-07-13T15:47:48;25.70;79.90
11812;DHT22;5963;50.184;9.162;2023-07-13T15:50:23;25.70;81.40
11812;DHT22;5963;50.184;9.162;2023-07-13T15:53:05;26.00;80.90
11812;DHT22;5963;50.184;9.162;2023-07-13T15:55:35;26.20;80.40
11812;DHT22;5963;50.184;9.162;2023-07-13T15:58:21;26.50;79.50
11812;DHT22;5963;50.184;9.162;2023-07-13T16:01:00;26.40;79.50
11812;DHT22;5963;50.184;9.162;2023-07-13T16:03:38;26.30;79.40
11812;DHT22;5963;50.184;9.162;2023-07-13T16:06:12;26.30;80.10
11812;DHT22;5963;50.184;9.162;2023-07-13T16:08:49;26.50;79.50
11812;DHT22;5963;50.184;9.162;2023-07-13T16:11:25;26.30;78.60
11812;DHT22;5963;50.184;9.162;2023-07-13T16:13:58;26.10;78.70
11812;DHT22;5963;50.184;9.162;2023-07-13T16:16:37;26.10;79.40
11812;DHT22;5963;50.184;9.162;2023-07-13T16:19:29;26.10;79.50
11812;DHT22;5963;50.184;9.162;2023-07-13T16:22:08;25.90;78.60
11812;DHT22;5963;50.184;9.162;2023-07-13T16:24:58;25.50;78.80
11812;DHT22;5963;50.184;9.162;2023-07-13T16:27:34;25.40;80.00
11812;DHT22;5963;50.184;9.162;2023-07-13T16:30:12;25.30;79.70
11812;DHT22;5963;50.184;9.162;2023-07-13T16:32:44;25.20;79.10
11812;DHT22;5963;50.184;9.162;2023-07-13T16:35:18;25.30;79.10
11812;DHT22;5963;50.184;9.162;2023-07-13T16:37:53;25.50;79.70
11812;DHT22;5963;50.184;9.162;2023-07-13T16:40:33;25.40;80.00
11812;DHT22;5963;50.184;9.162;2023-07-13T16:43:14;25.40;79.00
11812;DHT22;5963;50.184;9.162;2023-07-13T16:46:00;25.30;79.70
11812;DHT22;5963;50.184;9.162;2023-07-13T16:48:38;25.20;79.80
11812;DHT22;5963;50.184;9.162;2023-07-13T16:51:11;25.20;80.20
11812;DHT22;5963;50.184;9.162;2023-07-13T16:53:45;25.10;78.50
11812;DHT22;5963;50.184;9.162;2023-07-13T16:56:21;25.20;79.20